createdAt,value
2022-08-11T00:02:36.086Z,58.17
2022-08-11T00:05:08.912Z,58.06
2022-08-11T00:07:43.725Z,58.94
2022-08-11T00:10:13.785Z,58.60
2022-08-11T00:12:42.742Z,59.29
2022-08-11T00:15:10.231Z,59.38
2022-08-11T00:17:37.685Z,59.79
2022-08-11T00:20:12.616Z,61.17
2022-08-11T00:22:44.969Z,60.71
2022-08-11T00:25:16.968Z,61.23
2022-08-11T00:27:43.881Z,61.64
2022-08-11T00:30:12.075Z,62.11
2022-08-11T00:32:42.267Z,62.43
2022-08-11T00:35:56.094Z,63.37
2022-08-11T00:38:03.366Z,63.10
2022-08-11T00:41:11.254Z,65.83
2022-08-11T00:43:46.891Z,64.53
2022-08-11T00:46:16.366Z,65.41
2022-08-11T00:49:00.369Z,66.34
2022-08-11T00:52:05.376Z,67.35
2022-08-11T00:54:44.989Z,65.33
2022-08-11T00:57:37.505Z,67.98
2022-08-11T01:00:20.629Z,67.49
2022-08-11T01:03:08.700Z,66.79
2022-08-11T01:06:01.943Z,67.94
2022-08-11T01:09:06.970Z,69.56
2022-08-11T01:11:55.501Z,69.82
2022-08-11T01:14:44.294Z,68.61
2022-08-11T01:17:58.900Z,71.05
2022-08-11T01:20:53.313Z,71.01
2022-08-11T01:23:50.972Z,71.87
2022-08-11T01:29:30.262Z,73.77
2022-08-11T01:32:46.639Z,75.32
2022-08-11T01:35:27.506Z,72.79
2022-08-11T01:38:31.588Z,75.32
2022-08-11T01:41:54.196Z,76.18
2022-08-11T01:44:38.733Z,78.35
2022-08-11T01:47:52.953Z,76.08
2022-08-11T01:50:32.091Z,74.80
2022-08-11T01:53:04.794Z,76.33
2022-08-11T01:55:44.868Z,76.85
2022-08-11T01:58:43.480Z,78.51
2022-08-11T02:01:20.449Z,76.92
2022-08-11T02:04:31.312Z,79.49
2022-08-11T02:07:17.005Z,77.82
2022-08-11T02:10:35.343Z,79.06
2022-08-11T02:13:36.900Z,80.03
2022-08-11T02:16:21.673Z,79.09
2022-08-11T02:19:19.093Z,80.60
2022-08-11T02:22:17.532Z,80.54
2022-08-11T02:25:05.954Z,82.43
2022-08-11T02:27:43.379Z,81.41
2022-08-11T02:30:14.561Z,80.35
2022-08-11T02:33:09.523Z,81.71
2022-08-11T02:35:50.275Z,82.44
2022-08-11T02:38:41.990Z,83.82
2022-08-11T02:42:04.796Z,83.91
2022-08-11T02:44:49.101Z,84.94
2022-08-11T02:48:03.799Z,85.06
2022-08-11T02:50:35.453Z,83.85
2022-08-11T02:53:30.362Z,85.39
2022-08-11T02:56:09.050Z,84.71
2022-08-11T02:58:44.155Z,85.60
2022-08-11T03:01:28.338Z,87.10
2022-08-11T03:04:08.696Z,87.52
2022-08-11T03:06:48.208Z,86.95
2022-08-11T03:09:24.546Z,87.45
2022-08-11T03:12:15.346Z,87.50
2022-08-11T03:15:28.288Z,89.81
2022-08-11T03:18:26.202Z,87.84
2022-08-11T03:21:24.419Z,91.39
2022-08-11T03:24:25.645Z,88.98
2022-08-11T03:27:01.258Z,89.56
2022-08-11T03:29:38.418Z,90.34
2022-08-11T03:32:21.669Z,90.42
2022-08-11T03:34:50.587Z,90.07
2022-08-11T03:37:38.629Z,90.63
2022-08-11T03:40:59.173Z,94.45
2022-08-11T03:44:07.750Z,93.31
2022-08-11T03:46:58.969Z,93.48
2022-08-11T03:50:02.149Z,94.46
2022-08-11T03:52:53.734Z,91.81
2022-08-11T03:55:21.918Z,92.37
2022-08-11T03:58:00.541Z,92.59
2022-08-11T04:00:48.530Z,93.72
2022-08-11T04:03:33.495Z,95.13
2022-08-11T04:06:36.190Z,94.62
2022-08-11T04:09:35.987Z,96.30
2022-08-11T04:12:35.832Z,96.44
2022-08-11T04:15:56.251Z,96.77
2022-08-11T04:18:50.729Z,97.99
2022-08-11T04:21:35.562Z,98.98
2022-08-11T04:24:37.953Z,95.81
2022-08-11T04:27:39.050Z,98.25
2022-08-11T04:30:33.929Z,99.06
2022-08-11T04:33:39.543Z,99.39
2022-08-11T04:36:09.507Z,96.95
2022-08-11T04:38:55.189Z,97.59
2022-08-11T04:42:12.688Z,97.99
2022-08-11T04:45:09.910Z,98.70
2022-08-11T04:48:15.361Z,99.03
2022-08-11T04:51:19.013Z,97.83
2022-08-11T04:54:26.374Z,98.29
2022-08-11T04:57:28.265Z,98.55
2022-08-11T05:00:24.255Z,99.02
2022-08-11T05:03:13.800Z,98.79
2022-08-11T05:06:01.734Z,98.57
2022-08-11T05:08:47.259Z,100.00
2022-08-11T05:11:34.850Z,100.00
2022-08-11T05:14:46.242Z,100.00
2022-08-11T05:17:36.348Z,100.00
2022-08-11T05:20:21.437Z,100.00
2022-08-11T05:23:09.410Z,100.00
2022-08-11T05:26:43.267Z,100.00
2022-08-11T05:29:20.090Z,100.00
2022-08-11T05:32:15.594Z,100.00
2022-08-11T05:34:53.436Z,100.00
2022-08-11T05:37:34.431Z,100.00
2022-08-11T05:40:31.682Z,100.00
2022-08-11T05:43:30.536Z,100.00
2022-08-11T05:46:20.500Z,100.00
2022-08-11T05:49:07.266Z,100.00
2022-08-11T05:52:05.691Z,100.00
2022-08-11T05:55:00.129Z,100.00
2022-08-11T05:57:49.403Z,100.00
2022-08-11T06:00:19.225Z,100.00
2022-08-11T06:02:59.092Z,100.00
2022-08-11T06:05:38.299Z,99.01
2022-08-11T06:08:10.452Z,98.83
2022-08-11T06:10:40.638Z,98.09
2022-08-11T06:13:08.409Z,96.88
2022-08-11T06:15:46.141Z,94.92
2022-08-11T06:18:13.898Z,94.35
2022-08-11T06:20:48.728Z,92.77
2022-08-11T06:23:18.726Z,92.89
2022-08-11T06:25:46.310Z,91.84
2022-08-11T06:28:20.400Z,90.43
2022-08-11T06:30:48.936Z,89.14
2022-08-11T06:33:30.394Z,87.04
2022-08-11T06:36:13.545Z,86.02
2022-08-11T06:38:52.000Z,84.08
2022-08-11T06:41:30.328Z,84.95
2022-08-11T06:44:13.086Z,82.43
2022-08-11T06:46:40.903Z,82.98
2022-08-11T06:49:29.816Z,82.05
2022-08-11T06:52:04.410Z,81.08
2022-08-11T06:54:35.166Z,79.28
2022-08-11T06:57:30.856Z,79.09
2022-08-11T07:00:17.934Z,78.06
2022-08-11T07:02:54.681Z,75.95
2022-08-11T07:05:47.219Z,74.07
2022-08-11T07:08:44.698Z,74.29
2022-08-11T07:11:54.227Z,70.45
2022-08-11T07:14:43.543Z,71.93
2022-08-11T07:17:17.379Z,70.03
2022-08-11T07:20:11.913Z,67.51
2022-08-11T07:22:58.334Z,67.61
2022-08-11T07:25:44.909Z,66.36
2022-08-11T07:28:36.601Z,64.35
2022-08-11T07:31:09.539Z,62.78
2022-08-11T07:34:08.269Z,60.10
2022-08-11T07:36:31.885Z,62.25
2022-08-11T07:38:59.346Z,62.07
2022-08-11T07:41:28.621Z,60.72
2022-08-11T07:44:09.084Z,59.46
2022-08-11T07:46:59.713Z,57.99
2022-08-11T07:49:48.018Z,58.45
2022-08-11T07:52:26.935Z,57.01
2022-08-11T07:55:02.535Z,55.67
2022-08-11T07:58:15.050Z,53.98
2022-08-11T08:01:01.933Z,52.68
2022-08-11T08:03:54.263Z,51.92
2022-08-11T08:06:42.036Z,50.78
2022-08-11T08:09:28.767Z,49.08
2022-08-11T08:12:15.545Z,48.68
2022-08-11T08:15:01.143Z,47.87
2022-08-11T08:18:09.953Z,47.73
2022-08-11T08:20:37.866Z,47.36
2022-08-11T08:23:05.754Z,47.43
2022-08-11T08:25:35.156Z,46.28
2022-08-11T08:28:06.160Z,45.82
2022-08-11T08:30:47.823Z,45.27
2022-08-11T08:33:18.532Z,45.19
2022-08-11T08:35:54.580Z,44.27
2022-08-11T08:38:22.938Z,44.66
2022-08-11T08:40:56.003Z,43.38
2022-08-11T08:43:24.091Z,43.28
2022-08-11T08:45:55.950Z,42.74
2022-08-11T08:48:25.710Z,42.51
2022-08-11T08:51:21.784Z,41.25
2022-08-11T08:53:54.467Z,41.73
2022-08-11T08:56:28.303Z,41.61
2022-08-11T08:58:57.626Z,41.02
2022-08-11T09:01:25.691Z,40.74
2022-08-11T09:04:05.385Z,40.36
2022-08-11T09:06:40.107Z,39.39
2022-08-11T09:09:12.173Z,39.71
2022-08-11T09:11:55.056Z,39.39
2022-08-11T09:14:53.850Z,38.09
2022-08-11T09:17:21.545Z,38.63
2022-08-11T09:20:01.523Z,38.14
2022-08-11T09:23:10.530Z,37.28
2022-08-11T09:25:56.085Z,37.04
2022-08-11T09:28:23.815Z,36.63
2022-08-11T09:30:55.155Z,36.32
2022-08-11T09:33:24.052Z,36.11
2022-08-11T09:35:52.653Z,35.75
2022-08-11T09:38:43.216Z,35.49
2022-08-11T09:41:14.151Z,35.63
2022-08-11T09:44:04.524Z,35.41
2022-08-11T09:46:33.154Z,35.06
2022-08-11T09:49:01.166Z,34.88
2022-08-11T09:51:32.297Z,33.69
2022-08-11T09:54:07.556Z,33.66
2022-08-11T09:56:53.461Z,33.95
2022-08-11T09:59:22.072Z,33.87
2022-08-11T10:01:55.117Z,33.73
2022-08-11T10:04:34.748Z,32.36
2022-08-11T10:07:06.883Z,33.03
2022-08-11T10:09:43.833Z,32.62
2022-08-11T10:12:14.747Z,32.77
2022-08-11T10:15:03.953Z,31.16
2022-08-11T10:17:39.403Z,30.91
2022-08-11T10:20:08.864Z,30.84
2022-08-11T10:22:54.786Z,30.86
2022-08-11T10:25:40.566Z,30.74
2022-08-11T10:28:30.648Z,30.03
2022-08-11T10:31:15.354Z,30.14
2022-08-11T10:34:00.255Z,29.44
2022-08-11T10:36:48.488Z,28.63
2022-08-11T10:39:18.421Z,29.15
2022-08-11T10:42:09.550Z,28.50
2022-08-11T10:44:50.673Z,27.22
2022-08-11T10:47:35.918Z,28.14
2022-08-11T10:50:22.050Z,28.27
2022-08-11T10:53:08.824Z,28.02
2022-08-11T10:55:58.362Z,27.98
2022-08-11T10:58:44.398Z,27.95
2022-08-11T11:01:12.271Z,27.67
2022-08-11T11:03:39.533Z,27.82
2022-08-11T11:06:28.346Z,27.53
2022-08-11T11:09:05.362Z,27.52
2022-08-11T11:11:57.370Z,27.68
2022-08-11T11:14:50.782Z,27.23
2022-08-11T11:17:47.829Z,27.14
2022-08-11T11:20:36.976Z,26.85
2022-08-11T11:23:06.732Z,26.91
2022-08-11T11:26:12.495Z,26.27
2022-08-11T11:29:13.158Z,25.94
2022-08-11T11:32:17.834Z,24.95
2022-08-11T11:35:02.789Z,24.66
2022-08-11T11:37:40.616Z,24.75
2022-08-11T11:40:28.694Z,26.05
2022-08-11T11:42:59.915Z,25.95
2022-08-11T11:45:26.513Z,25.20
2022-08-11T11:47:55.478Z,25.27
2022-08-11T11:50:31.713Z,24.94
2022-08-11T11:53:01.574Z,24.68
2022-08-11T11:55:29.463Z,24.58
2022-08-11T11:58:18.631Z,24.50
2022-08-11T12:01:05.578Z,24.18
2022-08-11T12:03:34.025Z,24.50
2022-08-11T12:06:00.920Z,24.01
2022-08-11T12:08:28.331Z,23.94
2022-08-11T12:11:21.902Z,23.70
2022-08-11T12:13:53.931Z,23.87
2022-08-11T12:16:34.190Z,24.07
2022-08-11T12:19:23.592Z,23.89
2022-08-11T12:22:10.203Z,23.57
2022-08-11T12:24:56.317Z,23.80
2022-08-11T12:27:25.538Z,23.56
2022-08-11T12:30:05.865Z,22.92
2022-08-11T12:32:35.116Z,23.30
2022-08-11T12:35:02.217Z,22.77
2022-08-11T12:37:35.074Z,22.63
2022-08-11T12:40:42.132Z,22.84
2022-08-11T12:43:38.199Z,22.46
2022-08-11T12:46:19.898Z,22.46
2022-08-11T12:49:08.180Z,22.77
2022-08-11T12:52:11.727Z,22.19
2022-08-11T12:54:49.679Z,22.74
2022-08-11T12:57:41.242Z,22.59
2022-08-11T13:00:27.876Z,22.46
2022-08-11T13:03:14.498Z,22.41
2022-08-11T13:05:46.241Z,21.98
2022-08-11T13:08:15.298Z,22.70
2022-08-11T13:11:02.119Z,22.35
2022-08-11T13:13:54.300Z,22.59
2022-08-11T13:16:17.643Z,22.35
2022-08-11T13:18:45.038Z,22.30
2022-08-11T13:21:20.040Z,21.65
2022-08-11T13:24:01.354Z,21.68
2022-08-11T13:26:41.629Z,21.07
2022-08-11T13:29:23.885Z,21.21
2022-08-11T13:31:52.496Z,21.72
2022-08-11T13:34:20.468Z,21.68
2022-08-11T13:36:52.033Z,21.79
2022-08-11T13:39:20.560Z,21.84
2022-08-11T13:41:48.560Z,21.92
2022-08-11T13:44:23.212Z,21.42
2022-08-11T13:46:53.920Z,21.37
2022-08-11T13:49:21.782Z,21.66
2022-08-11T13:51:49.284Z,21.31
2022-08-11T13:54:25.318Z,21.18
2022-08-11T13:56:56.958Z,21.66
2022-08-11T13:59:31.205Z,21.04
2022-08-11T14:02:21.524Z,21.49
2022-08-11T14:05:07.211Z,21.03
2022-08-11T14:07:40.068Z,21.01
2022-08-11T14:10:08.976Z,21.08
2022-08-11T14:12:56.205Z,21.20
2022-08-11T14:15:34.074Z,20.66
2022-08-11T14:18:18.140Z,20.78
2022-08-11T14:21:10.498Z,20.40
2022-08-11T14:23:46.719Z,20.25
2022-08-11T14:26:29.045Z,20.55
2022-08-11T14:29:02.066Z,20.63
2022-08-11T14:31:33.776Z,20.70
2022-08-11T14:34:06.510Z,20.81
2022-08-11T14:36:39.149Z,21.00
2022-08-11T14:39:12.899Z,20.95
2022-08-11T14:42:10.483Z,21.22
2022-08-11T14:45:04.633Z,20.48
2022-08-11T14:47:34.731Z,20.58
2022-08-11T14:50:10.292Z,20.89
2022-08-11T14:52:49.008Z,20.68
2022-08-11T14:55:35.322Z,20.83
2022-08-11T14:58:02.645Z,20.88
2022-08-11T15:00:30.242Z,20.68
2022-08-11T15:03:11.841Z,20.51
2022-08-11T15:05:56.054Z,20.48
2022-08-11T15:08:47.142Z,19.61
2022-08-11T15:11:34.621Z,19.70
2022-08-11T15:14:03.379Z,19.58
2022-08-11T15:16:48.950Z,19.69
2022-08-11T15:19:19.604Z,19.60
2022-08-11T15:22:04.758Z,19.17
2022-08-11T15:24:33.533Z,19.14
2022-08-11T15:27:22.509Z,18.52
2022-08-11T15:30:10.040Z,18.75
2022-08-11T15:33:04.641Z,18.82
2022-08-11T15:35:53.461Z,18.66
2022-08-11T15:38:22.044Z,18.06
2022-08-11T15:41:07.836Z,18.14
2022-08-11T15:44:15.148Z,17.72
2022-08-11T15:46:45.735Z,18.42
2022-08-11T15:49:22.266Z,18.28
2022-08-11T15:52:10.642Z,18.07
2022-08-11T15:54:46.351Z,18.08
2022-08-11T15:57:39.955Z,18.29
2022-08-11T16:00:26.580Z,18.17
2022-08-11T16:02:56.886Z,18.19
2022-08-11T16:05:46.118Z,18.12
2022-08-11T16:08:15.362Z,18.15
2022-08-11T16:10:44.076Z,17.79
2022-08-11T16:13:13.223Z,17.79
2022-08-11T16:16:09.058Z,17.60
2022-08-11T16:18:47.081Z,17.28
2022-08-11T16:21:26.244Z,17.56
2022-08-11T16:24:06.123Z,17.42
2022-08-11T16:27:11.200Z,17.89
2022-08-11T16:29:25.033Z,18.13
2022-08-11T16:32:11.592Z,18.05
2022-08-11T16:34:58.605Z,18.11
2022-08-11T16:37:45.642Z,18.14
2022-08-11T16:40:13.149Z,18.53
2022-08-11T16:43:09.965Z,18.35
2022-08-11T16:45:58.524Z,18.61
2022-08-11T16:48:37.278Z,19.08
2022-08-11T16:51:10.467Z,19.19
2022-08-11T16:53:46.108Z,19.45
2022-08-11T16:56:35.042Z,19.58
2022-08-11T16:59:16.535Z,20.11
2022-08-11T17:01:53.987Z,20.73
2022-08-11T17:05:04.300Z,20.71
2022-08-11T17:07:49.641Z,20.46
2022-08-11T17:10:52.732Z,20.85
2022-08-11T17:13:31.805Z,21.20
2022-08-11T17:16:10.875Z,21.32
2022-08-11T17:18:55.679Z,21.04
2022-08-11T17:21:26.645Z,21.56
2022-08-11T17:24:05.064Z,21.45
2022-08-11T17:26:58.604Z,21.34
2022-08-11T17:29:54.536Z,21.59
2022-08-11T17:32:56.730Z,21.80
2022-08-11T17:35:33.398Z,21.74
2022-08-11T17:38:17.901Z,21.97
2022-08-11T17:41:10.730Z,21.87
2022-08-11T17:44:09.257Z,21.92
2022-08-11T17:46:55.598Z,22.10
2022-08-11T17:49:23.594Z,22.13
2022-08-11T17:52:10.635Z,22.26
2022-08-11T17:54:58.184Z,22.61
2022-08-11T17:57:47.775Z,22.37
2022-08-11T18:00:15.574Z,22.70
2022-08-11T18:03:06.246Z,22.89
2022-08-11T18:05:37.084Z,22.85
2022-08-11T18:08:26.441Z,22.85
2022-08-11T18:11:17.456Z,23.53
2022-08-11T18:14:22.928Z,23.40
2022-08-11T18:17:07.699Z,23.53
2022-08-11T18:19:53.114Z,23.76
2022-08-11T18:22:48.576Z,24.48
2022-08-11T18:25:45.505Z,25.01
2022-08-11T18:28:33.516Z,25.45
2022-08-11T18:31:21.425Z,26.39
2022-08-11T18:34:14.752Z,27.66
2022-08-11T18:37:20.611Z,28.44
2022-08-11T18:40:15.226Z,27.37
2022-08-11T18:43:03.081Z,28.00
2022-08-11T18:45:52.760Z,28.28
2022-08-11T18:48:55.307Z,28.32
2022-08-11T18:51:42.735Z,28.58
2022-08-11T18:54:30.827Z,28.81
2022-08-11T18:57:20.749Z,29.46
2022-08-11T19:00:07.094Z,29.70
2022-08-11T19:02:55.691Z,30.13
2022-08-11T19:06:35.868Z,30.15
2022-08-11T19:08:53.515Z,30.23
2022-08-11T19:11:42.418Z,30.54
2022-08-11T19:14:30.576Z,30.74
2022-08-11T19:17:44.618Z,31.12
2022-08-11T19:20:30.116Z,31.31
2022-08-11T19:23:15.962Z,31.63
2022-08-11T19:26:02.708Z,31.85
2022-08-11T19:28:48.607Z,32.22
2022-08-11T19:31:34.157Z,32.00
2022-08-11T19:34:20.250Z,32.22
2022-08-11T19:37:06.615Z,32.73
2022-08-11T19:39:53.810Z,32.83
2022-08-11T19:42:40.286Z,32.78
2022-08-11T19:45:26.358Z,33.25
2022-08-11T19:48:31.138Z,33.18
2022-08-11T19:51:18.691Z,33.42
2022-08-11T19:54:06.469Z,33.49
2022-08-11T19:56:53.457Z,33.78
2022-08-11T19:59:41.796Z,33.79
2022-08-11T20:02:28.769Z,33.80
2022-08-11T20:05:13.753Z,34.04
2022-08-11T20:07:59.681Z,33.83
2022-08-11T20:10:47.152Z,34.04
2022-08-11T20:13:33.782Z,34.22
2022-08-11T20:16:21.261Z,34.51
2022-08-11T20:19:09.081Z,34.76
2022-08-11T20:21:56.389Z,34.68
2022-08-11T20:24:42.362Z,34.66
2022-08-11T20:27:29.348Z,34.83
2022-08-11T20:30:17.255Z,34.83
2022-08-11T20:33:03.325Z,35.24
2022-08-11T20:35:50.180Z,35.18
2022-08-11T20:38:37.004Z,35.61
2022-08-11T20:41:23.047Z,35.73
2022-08-11T20:44:10.322Z,36.33
2022-08-11T20:46:57.845Z,36.54
2022-08-11T20:49:53.606Z,37.17
2022-08-11T20:52:47.151Z,37.26
2022-08-11T20:55:46.346Z,37.15
2022-08-11T21:01:45.440Z,37.72
2022-08-11T21:04:31.258Z,37.94
2022-08-11T21:07:28.035Z,38.14
2022-08-11T21:10:23.307Z,38.71
2022-08-11T21:13:18.007Z,39.18
2022-08-11T21:16:16.350Z,39.20
2022-08-11T21:19:15.661Z,39.74
2022-08-11T21:22:03.746Z,40.18
2022-08-11T21:24:50.823Z,40.42
2022-08-11T21:27:38.908Z,40.59
2022-08-11T21:30:24.715Z,40.90
2022-08-11T21:33:11.349Z,41.60
2022-08-11T21:35:56.859Z,41.62
2022-08-11T21:38:42.625Z,42.24
2022-08-11T21:41:29.445Z,42.57
2022-08-11T21:44:16.252Z,43.04
2022-08-11T21:47:02.453Z,43.56
2022-08-11T21:49:49.790Z,43.39
2022-08-11T21:52:35.157Z,43.62
2022-08-11T21:55:21.195Z,43.58
2022-08-11T21:58:07.235Z,43.70
2022-08-11T22:00:52.545Z,44.16
2022-08-11T22:03:49.797Z,44.76
2022-08-11T22:06:36.808Z,45.41
2022-08-11T22:09:22.119Z,45.78
2022-08-11T22:12:34.301Z,46.24
2022-08-11T22:15:13.010Z,46.69
2022-08-11T22:17:58.428Z,46.96
2022-08-11T22:20:45.775Z,47.50
2022-08-11T22:23:36.348Z,47.69
2022-08-11T22:26:22.779Z,48.29
2022-08-11T22:29:08.239Z,47.94
2022-08-11T22:31:55.319Z,48.55
2022-08-11T22:34:52.790Z,49.19
2022-08-11T22:37:39.491Z,49.40
2022-08-11T22:40:26.028Z,50.17
2022-08-11T22:43:10.950Z,50.13
2022-08-11T22:45:56.361Z,50.46
2022-08-11T22:48:44.587Z,51.20
2022-08-11T22:51:31.402Z,51.48
2022-08-11T22:54:18.369Z,51.56
2022-08-11T22:57:03.468Z,52.31
2022-08-11T22:59:49.362Z,52.59
2022-08-11T23:02:34.916Z,52.84
2022-08-11T23:05:21.454Z,53.36
2022-08-11T23:08:07.041Z,54.01
2022-08-11T23:10:52.660Z,54.35
2022-08-11T23:13:40.209Z,54.45
2022-08-11T23:16:26.093Z,54.83
2022-08-11T23:19:13.258Z,55.45
2022-08-11T23:21:59.238Z,55.52
2022-08-11T23:24:44.953Z,56.22
2022-08-11T23:27:32.320Z,56.75
2022-08-11T23:30:19.678Z,57.14
2022-08-11T23:33:09.876Z,57.24
2022-08-11T23:36:02.294Z,57.66
2022-08-11T23:38:51.306Z,57.99
2022-08-11T23:41:36.833Z,58.63
2022-08-11T23:44:24.327Z,59.59
2022-08-11T23:47:13.872Z,60.39
2022-08-11T23:50:00.782Z,61.18
2022-08-11T23:52:47.761Z,61.37
2022-08-11T23:55:33.280Z,62.24
2022-08-11T23:58:18.729Z,62.65
